sensor_id;sensor_type;location;lat;lon;timestamp;P1;durP1;ratioP1;P2;durP2;ratioP2
18387;SDS011;9320;50.256;19.026;2022-12-29T00:01:08;13.80;;;8.03;;
18387;SDS011;9320;50.256;19.026;2022-12-29T00:03:36;13.17;;;7.40;;
18387;SDS011;9320;50.256;19.026;2022-12-29T00:06:05;12.70;;;7.50;;
18387;SDS011;9320;50.256;19.026;2022-12-29T00:08:33;15.93;;;8.20;;
18387;SDS011;9320;50.256;19.026;2022-12-29T00:11:07;12.10;;;8.20;;
18387;SDS011;9320;50.256;19.026;2022-12-29T00:13:37;12.57;;;8.10;;
18387;SDS011;9320;50.256;19.026;2022-12-29T00:16:23;15.63;;;9.23;;
18387;SDS011;9320;50.256;19.026;2022-12-29T00:18:52;16.53;;;8.87;;
18387;SDS011;9320;50.256;19.026;2022-12-29T00:21:20;14.40;;;9.07;;
18387;SDS011;9320;50.256;19.026;2022-12-29T00:24:09;17.77;;;8.90;;
18387;SDS011;9320;50.256;19.026;2022-12-29T00:26:58;18.47;;;9.80;;
18387;SDS011;9320;50.256;19.026;2022-12-29T00:29:55;15.73;;;9.40;;
18387;SDS011;9320;50.256;19.026;2022-12-29T00:32:42;20.40;;;10.43;;
18387;SDS011;9320;50.256;19.026;2022-12-29T00:35:28;18.63;;;10.30;;
18387;SDS011;9320;50.256;19.026;2022-12-29T00:37:59;23.53;;;10.47;;
18387;SDS011;9320;50.256;19.026;2022-12-29T00:40:47;20.13;;;10.73;;
18387;SDS011;9320;50.256;19.026;2022-12-29T00:43:33;24.03;;;10.27;;
18387;SDS011;9320;50.256;19.026;2022-12-29T00:46:20;22.77;;;11.50;;
18387;SDS011;9320;50.256;19.026;2022-12-29T00:48:48;23.57;;;11.13;;
18387;SDS011;9320;50.256;19.026;2022-12-29T00:51:34;20.57;;;11.03;;
18387;SDS011;9320;50.256;19.026;2022-12-29T00:54:02;22.23;;;11.53;;
18387;SDS011;9320;50.256;19.026;2022-12-29T00:56:30;20.47;;;11.40;;
18387;SDS011;9320;50.256;19.026;2022-12-29T00:58:59;24.73;;;11.70;;
18387;SDS011;9320;50.256;19.026;2022-12-29T01:01:29;22.40;;;11.67;;
18387;SDS011;9320;50.256;19.026;2022-12-29T01:03:57;27.03;;;11.80;;
18387;SDS011;9320;50.256;19.026;2022-12-29T01:06:30;24.17;;;11.73;;
18387;SDS011;9320;50.256;19.026;2022-12-29T01:08:58;23.97;;;12.00;;
18387;SDS011;9320;50.256;19.026;2022-12-29T01:11:43;23.83;;;11.70;;
18387;SDS011;9320;50.256;19.026;2022-12-29T01:14:12;24.33;;;12.20;;
18387;SDS011;9320;50.256;19.026;2022-12-29T01:16:41;20.90;;;11.27;;
18387;SDS011;9320;50.256;19.026;2022-12-29T01:19:09;21.73;;;11.07;;
18387;SDS011;9320;50.256;19.026;2022-12-29T01:21:38;22.27;;;10.97;;
18387;SDS011;9320;50.256;19.026;2022-12-29T01:24:06;17.87;;;9.73;;
18387;SDS011;9320;50.256;19.026;2022-12-29T01:26:34;19.03;;;10.20;;
18387;SDS011;9320;50.256;19.026;2022-12-29T01:29:02;19.90;;;9.97;;
18387;SDS011;9320;50.256;19.026;2022-12-29T01:31:30;18.17;;;10.50;;
18387;SDS011;9320;50.256;19.026;2022-12-29T01:33:59;23.03;;;10.10;;
18387;SDS011;9320;50.256;19.026;2022-12-29T01:36:27;18.70;;;10.27;;
18387;SDS011;9320;50.256;19.026;2022-12-29T01:38:56;15.20;;;9.33;;
18387;SDS011;9320;50.256;19.026;2022-12-29T01:41:24;17.90;;;8.87;;
18387;SDS011;9320;50.256;19.026;2022-12-29T01:43:53;16.80;;;9.57;;
18387;SDS011;9320;50.256;19.026;2022-12-29T01:46:24;18.40;;;9.43;;
18387;SDS011;9320;50.256;19.026;2022-12-29T01:48:56;20.67;;;10.00;;
18387;SDS011;9320;50.256;19.026;2022-12-29T01:51:30;18.90;;;10.27;;
18387;SDS011;9320;50.256;19.026;2022-12-29T01:54:00;22.23;;;10.73;;
18387;SDS011;9320;50.256;19.026;2022-12-29T01:56:32;19.00;;;10.50;;
18387;SDS011;9320;50.256;19.026;2022-12-29T01:59:01;18.60;;;10.83;;
18387;SDS011;9320;50.256;19.026;2022-12-29T02:01:33;25.67;;;11.03;;
18387;SDS011;9320;50.256;19.026;2022-12-29T02:04:03;18.63;;;10.17;;
18387;SDS011;9320;50.256;19.026;2022-12-29T02:06:33;22.23;;;11.13;;
18387;SDS011;9320;50.256;19.026;2022-12-29T02:09:05;20.13;;;10.37;;
18387;SDS011;9320;50.256;19.026;2022-12-29T02:11:33;19.27;;;10.60;;
18387;SDS011;9320;50.256;19.026;2022-12-29T02:14:07;19.23;;;11.50;;
18387;SDS011;9320;50.256;19.026;2022-12-29T02:16:40;19.77;;;11.10;;
18387;SDS011;9320;50.256;19.026;2022-12-29T02:22:26;16.90;;;9.93;;
18387;SDS011;9320;50.256;19.026;2022-12-29T02:25:04;17.23;;;10.03;;
18387;SDS011;9320;50.256;19.026;2022-12-29T02:27:52;18.97;;;10.13;;
18387;SDS011;9320;50.256;19.026;2022-12-29T02:30:39;18.93;;;10.33;;
18387;SDS011;9320;50.256;19.026;2022-12-29T02:33:21;19.43;;;9.90;;
18387;SDS011;9320;50.256;19.026;2022-12-29T02:35:56;17.53;;;9.70;;
18387;SDS011;9320;50.256;19.026;2022-12-29T02:38:39;17.60;;;9.63;;
18387;SDS011;9320;50.256;19.026;2022-12-29T02:41:17;16.53;;;9.90;;
18387;SDS011;9320;50.256;19.026;2022-12-29T02:43:50;17.80;;;9.87;;
18387;SDS011;9320;50.256;19.026;2022-12-29T02:46:27;17.80;;;9.50;;
18387;SDS011;9320;50.256;19.026;2022-12-29T02:49:03;18.90;;;10.00;;
18387;SDS011;9320;50.256;19.026;2022-12-29T02:51:39;16.43;;;9.13;;
18387;SDS011;9320;50.256;19.026;2022-12-29T02:54:11;16.40;;;8.67;;
18387;SDS011;9320;50.256;19.026;2022-12-29T02:56:57;16.30;;;9.37;;
18387;SDS011;9320;50.256;19.026;2022-12-29T02:59:25;15.97;;;9.13;;
18387;SDS011;9320;50.256;19.026;2022-12-29T03:02:02;14.27;;;9.00;;
18387;SDS011;9320;50.256;19.026;2022-12-29T03:04:47;14.37;;;8.60;;
18387;SDS011;9320;50.256;19.026;2022-12-29T03:07:39;15.73;;;8.80;;
18387;SDS011;9320;50.256;19.026;2022-12-29T03:10:15;14.37;;;8.70;;
18387;SDS011;9320;50.256;19.026;2022-12-29T03:12:54;17.40;;;9.03;;
18387;SDS011;9320;50.256;19.026;2022-12-29T03:15:55;14.23;;;8.47;;
18387;SDS011;9320;50.256;19.026;2022-12-29T03:18:34;14.50;;;8.80;;
18387;SDS011;9320;50.256;19.026;2022-12-29T03:21:10;18.93;;;9.13;;
18387;SDS011;9320;50.256;19.026;2022-12-29T03:23:43;14.90;;;9.03;;
18387;SDS011;9320;50.256;19.026;2022-12-29T03:26:15;16.30;;;9.33;;
18387;SDS011;9320;50.256;19.026;2022-12-29T03:28:46;15.47;;;8.83;;
18387;SDS011;9320;50.256;19.026;2022-12-29T03:31:19;13.83;;;8.37;;
18387;SDS011;9320;50.256;19.026;2022-12-29T03:33:50;13.27;;;8.67;;
18387;SDS011;9320;50.256;19.026;2022-12-29T03:36:22;13.40;;;8.07;;
18387;SDS011;9320;50.256;19.026;2022-12-29T03:38:57;14.30;;;8.50;;
18387;SDS011;9320;50.256;19.026;2022-12-29T03:41:30;13.20;;;8.23;;
18387;SDS011;9320;50.256;19.026;2022-12-29T03:44:00;11.17;;;7.97;;
18387;SDS011;9320;50.256;19.026;2022-12-29T03:46:28;13.30;;;8.10;;
18387;SDS011;9320;50.256;19.026;2022-12-29T03:48:57;12.83;;;7.93;;
18387;SDS011;9320;50.256;19.026;2022-12-29T03:51:25;16.03;;;8.43;;
18387;SDS011;9320;50.256;19.026;2022-12-29T03:53:53;10.17;;;7.33;;
18387;SDS011;9320;50.256;19.026;2022-12-29T03:56:21;12.13;;;7.90;;
18387;SDS011;9320;50.256;19.026;2022-12-29T03:58:49;13.30;;;8.17;;
18387;SDS011;9320;50.256;19.026;2022-12-29T04:01:17;16.47;;;9.00;;
18387;SDS011;9320;50.256;19.026;2022-12-29T04:03:45;12.70;;;8.67;;
18387;SDS011;9320;50.256;19.026;2022-12-29T04:06:15;12.40;;;8.00;;
18387;SDS011;9320;50.256;19.026;2022-12-29T04:08:43;11.53;;;8.20;;
18387;SDS011;9320;50.256;19.026;2022-12-29T04:11:11;16.23;;;8.63;;
18387;SDS011;9320;50.256;19.026;2022-12-29T04:13:39;14.10;;;8.53;;
18387;SDS011;9320;50.256;19.026;2022-12-29T04:16:07;13.00;;;8.80;;
18387;SDS011;9320;50.256;19.026;2022-12-29T04:18:35;15.67;;;9.23;;
18387;SDS011;9320;50.256;19.026;2022-12-29T04:21:03;15.37;;;9.47;;
18387;SDS011;9320;50.256;19.026;2022-12-29T04:23:34;13.77;;;9.37;;
18387;SDS011;9320;50.256;19.026;2022-12-29T04:26:04;15.87;;;9.23;;
18387;SDS011;9320;50.256;19.026;2022-12-29T04:28:33;14.80;;;8.90;;
18387;SDS011;9320;50.256;19.026;2022-12-29T04:31:02;19.73;;;9.80;;
18387;SDS011;9320;50.256;19.026;2022-12-29T04:33:30;17.63;;;9.90;;
18387;SDS011;9320;50.256;19.026;2022-12-29T04:35:59;16.70;;;10.20;;
18387;SDS011;9320;50.256;19.026;2022-12-29T04:38:27;19.10;;;10.27;;
18387;SDS011;9320;50.256;19.026;2022-12-29T04:40:57;17.73;;;9.50;;
18387;SDS011;9320;50.256;19.026;2022-12-29T04:43:26;17.27;;;9.30;;
18387;SDS011;9320;50.256;19.026;2022-12-29T04:45:55;15.60;;;9.10;;
18387;SDS011;9320;50.256;19.026;2022-12-29T04:48:23;14.63;;;9.47;;
18387;SDS011;9320;50.256;19.026;2022-12-29T04:50:51;14.23;;;9.37;;
18387;SDS011;9320;50.256;19.026;2022-12-29T04:53:19;14.57;;;9.50;;
18387;SDS011;9320;50.256;19.026;2022-12-29T04:55:48;15.87;;;9.43;;
18387;SDS011;9320;50.256;19.026;2022-12-29T04:58:18;13.53;;;9.10;;
18387;SDS011;9320;50.256;19.026;2022-12-29T05:00:48;19.03;;;9.27;;
18387;SDS011;9320;50.256;19.026;2022-12-29T05:03:17;15.03;;;10.07;;
18387;SDS011;9320;50.256;19.026;2022-12-29T05:05:45;14.97;;;9.47;;
18387;SDS011;9320;50.256;19.026;2022-12-29T05:08:13;19.70;;;10.10;;
18387;SDS011;9320;50.256;19.026;2022-12-29T05:10:43;17.60;;;9.07;;
18387;SDS011;9320;50.256;19.026;2022-12-29T05:13:12;15.07;;;8.93;;
18387;SDS011;9320;50.256;19.026;2022-12-29T05:15:41;13.10;;;8.50;;
18387;SDS011;9320;50.256;19.026;2022-12-29T05:18:15;14.70;;;9.37;;
18387;SDS011;9320;50.256;19.026;2022-12-29T05:20:43;18.67;;;9.17;;
18387;SDS011;9320;50.256;19.026;2022-12-29T05:23:11;16.67;;;10.27;;
18387;SDS011;9320;50.256;19.026;2022-12-29T05:25:39;17.00;;;9.03;;
18387;SDS011;9320;50.256;19.026;2022-12-29T05:28:08;12.83;;;8.67;;
18387;SDS011;9320;50.256;19.026;2022-12-29T05:30:36;16.63;;;9.13;;
18387;SDS011;9320;50.256;19.026;2022-12-29T05:33:05;15.17;;;8.30;;
18387;SDS011;9320;50.256;19.026;2022-12-29T05:35:33;14.13;;;9.10;;
18387;SDS011;9320;50.256;19.026;2022-12-29T05:38:01;12.10;;;8.30;;
18387;SDS011;9320;50.256;19.026;2022-12-29T05:40:29;13.27;;;7.83;;
18387;SDS011;9320;50.256;19.026;2022-12-29T05:42:58;14.77;;;8.07;;
18387;SDS011;9320;50.256;19.026;2022-12-29T05:45:26;16.37;;;8.40;;
18387;SDS011;9320;50.256;19.026;2022-12-29T05:47:54;15.83;;;8.93;;
18387;SDS011;9320;50.256;19.026;2022-12-29T05:50:23;18.77;;;8.93;;
18387;SDS011;9320;50.256;19.026;2022-12-29T05:52:51;16.33;;;8.70;;
18387;SDS011;9320;50.256;19.026;2022-12-29T05:55:19;15.80;;;8.53;;
18387;SDS011;9320;50.256;19.026;2022-12-29T05:57:47;15.10;;;9.40;;
18387;SDS011;9320;50.256;19.026;2022-12-29T06:00:15;15.67;;;9.83;;
18387;SDS011;9320;50.256;19.026;2022-12-29T06:02:43;13.73;;;8.70;;
18387;SDS011;9320;50.256;19.026;2022-12-29T06:05:12;13.90;;;8.97;;
18387;SDS011;9320;50.256;19.026;2022-12-29T06:07:41;17.20;;;9.57;;
18387;SDS011;9320;50.256;19.026;2022-12-29T06:10:11;19.77;;;9.77;;
18387;SDS011;9320;50.256;19.026;2022-12-29T06:12:39;15.63;;;9.13;;
18387;SDS011;9320;50.256;19.026;2022-12-29T06:15:07;16.60;;;9.00;;
18387;SDS011;9320;50.256;19.026;2022-12-29T06:17:36;19.03;;;9.20;;
18387;SDS011;9320;50.256;19.026;2022-12-29T06:20:04;14.57;;;9.43;;
18387;SDS011;9320;50.256;19.026;2022-12-29T06:22:33;18.17;;;9.37;;
18387;SDS011;9320;50.256;19.026;2022-12-29T06:25:03;16.23;;;9.73;;
18387;SDS011;9320;50.256;19.026;2022-12-29T06:27:31;19.10;;;10.50;;
18387;SDS011;9320;50.256;19.026;2022-12-29T06:29:59;16.87;;;9.07;;
18387;SDS011;9320;50.256;19.026;2022-12-29T06:32:28;18.57;;;10.20;;
18387;SDS011;9320;50.256;19.026;2022-12-29T06:34:56;16.77;;;9.33;;
18387;SDS011;9320;50.256;19.026;2022-12-29T06:37:24;17.97;;;8.90;;
18387;SDS011;9320;50.256;19.026;2022-12-29T06:39:52;17.77;;;9.63;;
18387;SDS011;9320;50.256;19.026;2022-12-29T06:42:21;15.37;;;9.00;;
18387;SDS011;9320;50.256;19.026;2022-12-29T06:44:49;14.90;;;9.07;;
18387;SDS011;9320;50.256;19.026;2022-12-29T06:47:18;16.90;;;10.03;;
18387;SDS011;9320;50.256;19.026;2022-12-29T06:49:46;20.63;;;10.57;;
18387;SDS011;9320;50.256;19.026;2022-12-29T06:52:14;21.17;;;10.43;;
18387;SDS011;9320;50.256;19.026;2022-12-29T06:54:42;18.80;;;9.83;;
18387;SDS011;9320;50.256;19.026;2022-12-29T06:57:10;19.23;;;9.80;;
18387;SDS011;9320;50.256;19.026;2022-12-29T06:59:40;16.10;;;9.37;;
18387;SDS011;9320;50.256;19.026;2022-12-29T07:02:09;20.03;;;10.20;;
18387;SDS011;9320;50.256;19.026;2022-12-29T07:04:38;18.43;;;10.10;;
18387;SDS011;9320;50.256;19.026;2022-12-29T07:07:06;20.47;;;10.20;;
18387;SDS011;9320;50.256;19.026;2022-12-29T07:09:34;17.87;;;9.63;;
18387;SDS011;9320;50.256;19.026;2022-12-29T07:12:02;16.87;;;9.07;;
18387;SDS011;9320;50.256;19.026;2022-12-29T07:14:30;18.57;;;9.50;;
18387;SDS011;9320;50.256;19.026;2022-12-29T07:17:09;18.63;;;9.77;;
18387;SDS011;9320;50.256;19.026;2022-12-29T07:19:37;17.30;;;8.77;;
18387;SDS011;9320;50.256;19.026;2022-12-29T07:22:05;17.40;;;9.93;;
18387;SDS011;9320;50.256;19.026;2022-12-29T07:24:33;16.60;;;9.63;;
18387;SDS011;9320;50.256;19.026;2022-12-29T07:27:01;17.70;;;9.40;;
18387;SDS011;9320;50.256;19.026;2022-12-29T07:29:29;17.67;;;10.13;;
18387;SDS011;9320;50.256;19.026;2022-12-29T07:31:57;16.83;;;9.50;;
18387;SDS011;9320;50.256;19.026;2022-12-29T07:34:27;14.07;;;9.13;;
18387;SDS011;9320;50.256;19.026;2022-12-29T07:36:55;13.20;;;8.63;;
18387;SDS011;9320;50.256;19.026;2022-12-29T07:39:23;16.60;;;9.80;;
18387;SDS011;9320;50.256;19.026;2022-12-29T07:41:51;16.30;;;9.57;;
18387;SDS011;9320;50.256;19.026;2022-12-29T07:44:26;19.10;;;9.40;;
18387;SDS011;9320;50.256;19.026;2022-12-29T07:46:54;17.03;;;9.83;;
18387;SDS011;9320;50.256;19.026;2022-12-29T07:49:24;17.10;;;9.53;;
18387;SDS011;9320;50.256;19.026;2022-12-29T07:51:53;18.60;;;10.13;;
18387;SDS011;9320;50.256;19.026;2022-12-29T07:54:21;17.30;;;9.87;;
18387;SDS011;9320;50.256;19.026;2022-12-29T07:56:50;17.73;;;10.30;;
18387;SDS011;9320;50.256;19.026;2022-12-29T07:59:18;18.47;;;10.40;;
18387;SDS011;9320;50.256;19.026;2022-12-29T08:01:46;17.13;;;10.30;;
18387;SDS011;9320;50.256;19.026;2022-12-29T08:04:15;20.87;;;10.77;;
18387;SDS011;9320;50.256;19.026;2022-12-29T08:06:43;16.13;;;10.30;;
18387;SDS011;9320;50.256;19.026;2022-12-29T08:09:13;16.33;;;9.97;;
18387;SDS011;9320;50.256;19.026;2022-12-29T08:11:47;20.13;;;10.63;;
18387;SDS011;9320;50.256;19.026;2022-12-29T08:14:15;15.37;;;10.37;;
18387;SDS011;9320;50.256;19.026;2022-12-29T08:16:44;16.33;;;10.30;;
18387;SDS011;9320;50.256;19.026;2022-12-29T08:19:12;18.40;;;10.10;;
18387;SDS011;9320;50.256;19.026;2022-12-29T08:21:41;18.77;;;10.03;;
18387;SDS011;9320;50.256;19.026;2022-12-29T08:24:09;17.07;;;10.43;;
18387;SDS011;9320;50.256;19.026;2022-12-29T08:26:39;18.03;;;10.40;;
18387;SDS011;9320;50.256;19.026;2022-12-29T08:29:07;17.33;;;10.73;;
18387;SDS011;9320;50.256;19.026;2022-12-29T08:31:35;18.40;;;10.53;;
18387;SDS011;9320;50.256;19.026;2022-12-29T08:34:03;19.00;;;10.53;;
18387;SDS011;9320;50.256;19.026;2022-12-29T08:36:32;18.37;;;10.00;;
18387;SDS011;9320;50.256;19.026;2022-12-29T08:39:00;17.60;;;10.30;;
18387;SDS011;9320;50.256;19.026;2022-12-29T08:41:28;18.57;;;10.80;;
18387;SDS011;9320;50.256;19.026;2022-12-29T08:43:57;16.87;;;10.47;;
18387;SDS011;9320;50.256;19.026;2022-12-29T08:46:25;19.83;;;10.87;;
18387;SDS011;9320;50.256;19.026;2022-12-29T08:48:53;18.93;;;11.20;;
18387;SDS011;9320;50.256;19.026;2022-12-29T08:51:21;21.17;;;12.20;;
18387;SDS011;9320;50.256;19.026;2022-12-29T08:53:50;26.67;;;12.60;;
18387;SDS011;9320;50.256;19.026;2022-12-29T08:56:19;23.67;;;12.77;;
18387;SDS011;9320;50.256;19.026;2022-12-29T08:58:47;26.33;;;12.80;;
18387;SDS011;9320;50.256;19.026;2022-12-29T09:01:16;24.10;;;13.93;;
18387;SDS011;9320;50.256;19.026;2022-12-29T09:03:45;26.60;;;13.00;;
18387;SDS011;9320;50.256;19.026;2022-12-29T09:06:33;27.20;;;12.70;;
18387;SDS011;9320;50.256;19.026;2022-12-29T09:09:06;22.80;;;12.67;;
18387;SDS011;9320;50.256;19.026;2022-12-29T09:11:34;21.03;;;11.67;;
18387;SDS011;9320;50.256;19.026;2022-12-29T09:14:02;27.60;;;13.33;;
18387;SDS011;9320;50.256;19.026;2022-12-29T09:16:31;23.83;;;12.97;;
18387;SDS011;9320;50.256;19.026;2022-12-29T09:19:00;23.53;;;12.53;;
18387;SDS011;9320;50.256;19.026;2022-12-29T09:21:28;22.13;;;12.73;;
18387;SDS011;9320;50.256;19.026;2022-12-29T09:23:56;26.37;;;13.80;;
18387;SDS011;9320;50.256;19.026;2022-12-29T09:26:24;24.77;;;12.90;;
18387;SDS011;9320;50.256;19.026;2022-12-29T09:28:52;24.83;;;13.27;;
18387;SDS011;9320;50.256;19.026;2022-12-29T09:31:20;22.57;;;12.40;;
18387;SDS011;9320;50.256;19.026;2022-12-29T09:33:49;22.17;;;11.30;;
18387;SDS011;9320;50.256;19.026;2022-12-29T09:36:17;20.40;;;11.43;;
18387;SDS011;9320;50.256;19.026;2022-12-29T09:38:45;23.93;;;11.90;;
18387;SDS011;9320;50.256;19.026;2022-12-29T09:41:15;18.33;;;11.13;;
18387;SDS011;9320;50.256;19.026;2022-12-29T09:43:56;19.07;;;10.93;;
18387;SDS011;9320;50.256;19.026;2022-12-29T09:46:33;23.30;;;11.97;;
18387;SDS011;9320;50.256;19.026;2022-12-29T09:49:15;21.10;;;11.37;;
18387;SDS011;9320;50.256;19.026;2022-12-29T09:51:51;22.13;;;11.67;;
18387;SDS011;9320;50.256;19.026;2022-12-29T09:54:36;22.23;;;12.07;;
18387;SDS011;9320;50.256;19.026;2022-12-29T09:57:18;21.73;;;11.53;;
18387;SDS011;9320;50.256;19.026;2022-12-29T09:59:51;21.90;;;11.60;;
18387;SDS011;9320;50.256;19.026;2022-12-29T10:02:29;18.43;;;11.57;;
18387;SDS011;9320;50.256;19.026;2022-12-29T10:05:08;18.33;;;11.47;;
18387;SDS011;9320;50.256;19.026;2022-12-29T10:07:47;19.13;;;11.13;;
18387;SDS011;9320;50.256;19.026;2022-12-29T10:10:26;19.20;;;10.87;;
18387;SDS011;9320;50.256;19.026;2022-12-29T10:13:05;20.73;;;11.23;;
18387;SDS011;9320;50.256;19.026;2022-12-29T10:15:48;18.07;;;10.63;;
18387;SDS011;9320;50.256;19.026;2022-12-29T10:18:29;19.90;;;11.20;;
18387;SDS011;9320;50.256;19.026;2022-12-29T10:21:12;21.73;;;11.27;;
18387;SDS011;9320;50.256;19.026;2022-12-29T10:23:47;19.67;;;11.60;;
18387;SDS011;9320;50.256;19.026;2022-12-29T10:26:18;20.67;;;11.20;;
18387;SDS011;9320;50.256;19.026;2022-12-29T10:28:50;18.43;;;11.03;;
18387;SDS011;9320;50.256;19.026;2022-12-29T10:31:21;24.07;;;11.90;;
18387;SDS011;9320;50.256;19.026;2022-12-29T10:33:51;21.07;;;11.67;;
18387;SDS011;9320;50.256;19.026;2022-12-29T10:36:28;18.23;;;11.10;;
18387;SDS011;9320;50.256;19.026;2022-12-29T10:39:02;21.13;;;11.93;;
18387;SDS011;9320;50.256;19.026;2022-12-29T10:41:39;20.40;;;11.20;;
18387;SDS011;9320;50.256;19.026;2022-12-29T10:44:13;20.30;;;11.07;;
18387;SDS011;9320;50.256;19.026;2022-12-29T10:46:54;19.60;;;11.23;;
18387;SDS011;9320;50.256;19.026;2022-12-29T10:49:24;18.03;;;10.43;;
18387;SDS011;9320;50.256;19.026;2022-12-29T10:51:56;18.13;;;10.67;;
18387;SDS011;9320;50.256;19.026;2022-12-29T10:54:27;19.77;;;10.90;;
18387;SDS011;9320;50.256;19.026;2022-12-29T10:57:02;21.10;;;11.10;;
18387;SDS011;9320;50.256;19.026;2022-12-29T10:59:34;20.80;;;11.03;;
18387;SDS011;9320;50.256;19.026;2022-12-29T11:02:11;19.13;;;11.23;;
18387;SDS011;9320;50.256;19.026;2022-12-29T11:04:55;21.27;;;11.77;;
18387;SDS011;9320;50.256;19.026;2022-12-29T11:07:30;21.93;;;11.53;;
18387;SDS011;9320;50.256;19.026;2022-12-29T11:12:56;20.30;;;10.07;;
18387;SDS011;9320;50.256;19.026;2022-12-29T11:15:25;15.80;;;10.00;;
18387;SDS011;9320;50.256;19.026;2022-12-29T11:17:56;19.30;;;10.03;;
18387;SDS011;9320;50.256;19.026;2022-12-29T11:20:27;15.07;;;9.97;;
18387;SDS011;9320;50.256;19.026;2022-12-29T11:22:59;18.80;;;10.57;;
18387;SDS011;9320;50.256;19.026;2022-12-29T11:25:27;16.70;;;10.20;;
18387;SDS011;9320;50.256;19.026;2022-12-29T11:27:56;20.07;;;11.37;;
18387;SDS011;9320;50.256;19.026;2022-12-29T11:30:27;18.97;;;10.80;;
18387;SDS011;9320;50.256;19.026;2022-12-29T11:32:57;23.77;;;13.97;;
18387;SDS011;9320;50.256;19.026;2022-12-29T11:35:33;21.83;;;12.13;;
18387;SDS011;9320;50.256;19.026;2022-12-29T11:38:04;21.00;;;11.20;;
18387;SDS011;9320;50.256;19.026;2022-12-29T11:40:32;23.07;;;12.37;;
18387;SDS011;9320;50.256;19.026;2022-12-29T11:43:06;22.83;;;12.03;;
18387;SDS011;9320;50.256;19.026;2022-12-29T11:45:44;21.60;;;12.43;;
18387;SDS011;9320;50.256;19.026;2022-12-29T11:48:15;22.57;;;12.63;;
18387;SDS011;9320;50.256;19.026;2022-12-29T11:50:48;25.70;;;14.07;;
18387;SDS011;9320;50.256;19.026;2022-12-29T11:53:21;25.97;;;13.30;;
18387;SDS011;9320;50.256;19.026;2022-12-29T11:55:52;25.63;;;13.70;;
18387;SDS011;9320;50.256;19.026;2022-12-29T11:58:28;27.87;;;14.57;;
18387;SDS011;9320;50.256;19.026;2022-12-29T12:00:59;22.67;;;13.87;;
18387;SDS011;9320;50.256;19.026;2022-12-29T12:03:30;22.80;;;12.70;;
18387;SDS011;9320;50.256;19.026;2022-12-29T12:06:02;26.63;;;14.80;;
18387;SDS011;9320;50.256;19.026;2022-12-29T12:08:33;21.20;;;13.27;;
18387;SDS011;9320;50.256;19.026;2022-12-29T12:11:06;22.07;;;13.13;;
18387;SDS011;9320;50.256;19.026;2022-12-29T12:13:39;24.90;;;13.90;;
18387;SDS011;9320;50.256;19.026;2022-12-29T12:16:15;25.60;;;14.60;;
18387;SDS011;9320;50.256;19.026;2022-12-29T12:18:47;23.33;;;13.73;;
18387;SDS011;9320;50.256;19.026;2022-12-29T12:21:21;22.57;;;13.00;;
18387;SDS011;9320;50.256;19.026;2022-12-29T12:26:58;26.03;;;14.00;;
18387;SDS011;9320;50.256;19.026;2022-12-29T12:29:33;28.63;;;15.13;;
18387;SDS011;9320;50.256;19.026;2022-12-29T12:32:08;22.87;;;12.47;;
18387;SDS011;9320;50.256;19.026;2022-12-29T12:34:43;21.97;;;12.23;;
18387;SDS011;9320;50.256;19.026;2022-12-29T12:40:18;18.70;;;12.03;;
18387;SDS011;9320;50.256;19.026;2022-12-29T12:43:13;28.13;;;15.73;;
18387;SDS011;9320;50.256;19.026;2022-12-29T12:45:59;24.80;;;14.63;;
18387;SDS011;9320;50.256;19.026;2022-12-29T12:51:44;24.37;;;14.13;;
18387;SDS011;9320;50.256;19.026;2022-12-29T12:54:34;25.60;;;13.33;;
18387;SDS011;9320;50.256;19.026;2022-12-29T12:57:27;24.20;;;13.43;;
18387;SDS011;9320;50.256;19.026;2022-12-29T13:00:07;21.77;;;12.90;;
18387;SDS011;9320;50.256;19.026;2022-12-29T13:02:40;24.13;;;13.00;;
18387;SDS011;9320;50.256;19.026;2022-12-29T13:05:30;29.67;;;12.97;;
18387;SDS011;9320;50.256;19.026;2022-12-29T13:08:30;21.40;;;13.17;;
18387;SDS011;9320;50.256;19.026;2022-12-29T13:11:18;27.37;;;14.37;;
18387;SDS011;9320;50.256;19.026;2022-12-29T13:13:57;25.10;;;13.47;;
18387;SDS011;9320;50.256;19.026;2022-12-29T13:16:35;23.07;;;13.07;;
18387;SDS011;9320;50.256;19.026;2022-12-29T13:19:13;23.10;;;13.50;;
18387;SDS011;9320;50.256;19.026;2022-12-29T13:21:49;24.10;;;13.47;;
18387;SDS011;9320;50.256;19.026;2022-12-29T13:24:33;25.57;;;13.77;;
18387;SDS011;9320;50.256;19.026;2022-12-29T13:27:10;21.53;;;12.83;;
18387;SDS011;9320;50.256;19.026;2022-12-29T13:29:47;22.30;;;13.53;;
18387;SDS011;9320;50.256;19.026;2022-12-29T13:32:27;23.63;;;13.90;;
18387;SDS011;9320;50.256;19.026;2022-12-29T13:35:14;24.27;;;13.90;;
18387;SDS011;9320;50.256;19.026;2022-12-29T13:38:07;26.13;;;13.47;;
18387;SDS011;9320;50.256;19.026;2022-12-29T13:40:40;23.30;;;13.97;;
18387;SDS011;9320;50.256;19.026;2022-12-29T13:43:12;24.00;;;13.70;;
18387;SDS011;9320;50.256;19.026;2022-12-29T13:45:44;26.90;;;13.57;;
18387;SDS011;9320;50.256;19.026;2022-12-29T13:48:19;24.33;;;14.73;;
18387;SDS011;9320;50.256;19.026;2022-12-29T13:50:51;24.90;;;13.07;;
18387;SDS011;9320;50.256;19.026;2022-12-29T13:53:24;20.70;;;12.63;;
18387;SDS011;9320;50.256;19.026;2022-12-29T13:55:58;21.60;;;12.60;;
18387;SDS011;9320;50.256;19.026;2022-12-29T13:58:37;20.60;;;12.90;;
18387;SDS011;9320;50.256;19.026;2022-12-29T14:01:14;23.13;;;13.60;;
18387;SDS011;9320;50.256;19.026;2022-12-29T14:03:48;25.63;;;12.80;;
18387;SDS011;9320;50.256;19.026;2022-12-29T14:06:22;22.07;;;12.30;;
18387;SDS011;9320;50.256;19.026;2022-12-29T14:08:52;20.43;;;13.10;;
18387;SDS011;9320;50.256;19.026;2022-12-29T14:11:22;21.53;;;12.13;;
18387;SDS011;9320;50.256;19.026;2022-12-29T14:13:55;19.90;;;11.17;;
18387;SDS011;9320;50.256;19.026;2022-12-29T14:16:26;21.83;;;11.80;;
18387;SDS011;9320;50.256;19.026;2022-12-29T14:18:57;20.30;;;11.87;;
18387;SDS011;9320;50.256;19.026;2022-12-29T14:21:32;18.17;;;11.03;;
18387;SDS011;9320;50.256;19.026;2022-12-29T14:26:54;19.40;;;11.83;;
18387;SDS011;9320;50.256;19.026;2022-12-29T14:38:06;22.80;;;12.87;;
18387;SDS011;9320;50.256;19.026;2022-12-29T14:40:42;20.10;;;12.50;;
18387;SDS011;9320;50.256;19.026;2022-12-29T14:43:14;28.07;;;13.63;;
18387;SDS011;9320;50.256;19.026;2022-12-29T14:45:51;22.40;;;12.57;;
18387;SDS011;9320;50.256;19.026;2022-12-29T14:48:34;22.70;;;12.93;;
18387;SDS011;9320;50.256;19.026;2022-12-29T14:51:18;21.83;;;12.80;;
18387;SDS011;9320;50.256;19.026;2022-12-29T14:53:49;21.47;;;12.37;;
18387;SDS011;9320;50.256;19.026;2022-12-29T14:56:18;20.83;;;12.70;;
18387;SDS011;9320;50.256;19.026;2022-12-29T14:58:51;22.77;;;11.63;;
18387;SDS011;9320;50.256;19.026;2022-12-29T15:01:26;25.47;;;12.50;;
18387;SDS011;9320;50.256;19.026;2022-12-29T15:04:05;19.27;;;11.80;;
18387;SDS011;9320;50.256;19.026;2022-12-29T15:06:42;22.03;;;12.47;;
18387;SDS011;9320;50.256;19.026;2022-12-29T15:09:14;23.17;;;13.40;;
18387;SDS011;9320;50.256;19.026;2022-12-29T15:11:52;18.97;;;11.93;;
18387;SDS011;9320;50.256;19.026;2022-12-29T15:14:29;17.33;;;11.40;;
18387;SDS011;9320;50.256;19.026;2022-12-29T15:16:59;23.07;;;11.80;;
18387;SDS011;9320;50.256;19.026;2022-12-29T15:19:29;18.97;;;12.03;;
18387;SDS011;9320;50.256;19.026;2022-12-29T15:21:57;18.33;;;11.97;;
18387;SDS011;9320;50.256;19.026;2022-12-29T15:24:25;21.83;;;12.10;;